Time;durP1;ratioP1;P1;durP2;ratioP2;P2;SDS_P1;SDS_P2;PMS_P1;PMS_P2;Temp;Humidity;BMP_temperature;BMP_pressure;BME280_temperature;BME280_humidity;BME280_pressure;Samples;Min_cycle;Max_cycle;Signal;HPM_P1;HPM_P2
2023/01/01 00:02:42;;;;;;;15.52;5.07;;;;;;;14.68;48.50;99780.31;10380628;28;20076;-77
2023/01/01 00:07:45;;;;;;;10.75;4.38;;;;;;;14.76;49.19;99780.34;10371710;28;20045;-76
2023/01/01 00:12:49;;;;;;;14.57;3.70;;;;;;;14.95;47.94;99802.69;10395383;28;20064;-77
2023/01/01 00:17:53;;;;;;;8.88;4.40;;;;;;;14.76;48.40;99761.41;10392098;28;20410;-78
2023/01/01 00:22:56;;;;;;;11.18;3.58;;;;;;;14.94;48.34;99768.50;10397539;28;20042;-79
2023/01/01 00:28:00;;;;;;;9.50;3.30;;;;;;;14.86;48.41;99782.03;10388921;28;20120;-79
2023/01/01 00:33:03;;;;;;;12.95;3.42;;;;;;;14.87;48.68;99779.16;10381741;28;20120;-80
2023/01/01 00:38:07;;;;;;;18.67;3.78;;;;;;;14.70;48.88;99785.53;10398642;28;20100;-79
2023/01/01 00:43:11;;;;;;;4.43;2.67;;;;;;;14.67;48.88;99805.63;10401276;28;20455;-79
2023/01/01 00:48:14;;;;;;;11.35;4.70;;;;;;;14.75;48.43;99794.84;10404211;28;20053;-78
2023/01/01 00:53:18;;;;;;;8.65;4.35;;;;;;;14.93;48.07;99770.38;10393932;28;20050;-78
2023/01/01 00:58:23;;;;;;;9.25;4.28;;;;;;;14.99;48.21;99788.63;10389634;28;20050;-78
2023/01/01 01:03:29;;;;;;;17.42;4.57;;;;;;;14.91;48.57;99831.03;10408477;28;20064;-78
2023/01/01 01:08:34;;;;;;;7.82;3.47;;;;;;;14.98;48.09;99803.19;10413227;28;20044;-78
2023/01/01 01:13:40;;;;;;;13.07;5.00;;;;;;;15.02;49.43;99799.13;10405513;28;20046;-78
2023/01/01 01:18:43;;;;;;;13.80;4.50;;;;;;;14.99;48.78;99795.91;10386805;28;20057;-78
2023/01/01 01:23:47;;;;;;;16.20;5.68;;;;;;;14.98;48.38;99788.81;10410368;28;20453;-78
2023/01/01 01:28:53;;;;;;;14.65;4.68;;;;;;;14.95;48.46;99800.81;10406990;28;20560;-79
2023/01/01 01:33:56;;;;;;;11.43;5.00;;;;;;;15.04;47.81;99812.47;10405768;28;20120;-78
2023/01/01 01:38:59;;;;;;;8.45;4.63;;;;;;;15.07;47.46;99825.66;10391494;28;20403;-79
2023/01/01 01:44:07;;;;;;;14.30;4.90;;;;;;;15.05;47.90;99808.75;10400707;28;20084;-78
2023/01/01 01:49:16;;;;;;;8.13;4.63;;;;;;;14.99;47.64;99831.91;10405913;28;20045;-78
2023/01/01 01:54:24;;;;;;;10.70;4.63;;;;;;;14.98;47.39;99813.16;10419641;28;20159;-77
2023/01/01 01:59:33;;;;;;;10.32;4.38;;;;;;;14.99;47.61;99809.44;10407775;28;20050;-79
2023/01/01 02:04:36;;;;;;;11.32;3.90;;;;;;;14.90;47.58;99813.97;10399010;28;20042;-79
2023/01/01 02:09:39;;;;;;;14.02;4.15;;;;;;;14.78;47.53;99828.81;10418735;28;20043;-78
2023/01/01 02:14:43;;;;;;;10.82;3.10;;;;;;;14.63;47.36;99820.50;10396642;28;20045;-79
2023/01/01 02:20:03;;;;;;;10.18;3.92;;;;;;;14.76;47.45;99828.16;10405609;28;20069;-79
2023/01/01 02:25:16;;;;;;;7.72;3.65;;;;;;;14.85;46.86;99827.16;10415469;28;20045;-78
2023/01/01 02:30:21;;;;;;;8.45;4.47;;;;;;;14.88;46.93;99828.69;10384675;28;20045;-79
2023/01/01 02:35:34;;;;;;;7.93;3.45;;;;;;;14.76;46.83;99830.84;10413819;28;20045;-78
2023/01/01 02:40:41;;;;;;;12.65;4.70;;;;;;;14.73;46.70;99844.72;10407630;28;20091;-79
2023/01/01 02:45:45;;;;;;;10.18;3.70;;;;;;;14.65;46.89;99833.88;10394487;28;20083;-79
2023/01/01 02:50:48;;;;;;;10.38;3.50;;;;;;;14.49;46.02;99845.47;10390354;28;20037;-79
2023/01/01 02:56:00;;;;;;;7.95;3.65;;;;;;;14.72;45.78;99830.31;10418441;28;20049;-77
2023/01/01 03:01:11;;;;;;;7.63;3.17;;;;;;;14.41;45.60;99856.22;10412975;28;20045;-78
2023/01/01 03:06:25;;;;;;;13.40;4.10;;;;;;;14.62;45.23;99843.16;10384618;28;20050;-77
2023/01/01 03:11:40;;;;;;;7.43;3.22;;;;;;;14.63;44.87;99819.66;10410772;28;20114;-77
2023/01/01 03:16:48;;;;;;;7.55;2.40;;;;;;;14.33;45.17;99817.31;10412820;28;20045;-78
2023/01/01 03:21:55;;;;;;;7.85;2.65;;;;;;;14.73;44.36;99823.91;10409412;28;20092;-79
2023/01/01 03:27:04;;;;;;;5.78;1.83;;;;;;;14.20;45.06;99819.63;10414010;28;20046;-78
2023/01/01 03:32:13;;;;;;;7.63;2.20;;;;;;;14.36;45.14;99846.72;10392290;28;20053;-77
2023/01/01 03:37:25;;;;;;;4.80;2.10;;;;;;;14.45;45.30;99825.16;10407464;28;20045;-79
2023/01/01 03:42:34;;;;;;;7.03;2.03;;;;;;;14.40;45.20;99852.69;10410174;28;20111;-79
2023/01/01 03:47:39;;;;;;;4.80;2.17;;;;;;;14.44;45.01;99837.84;10390564;28;20054;-77
2023/01/01 03:52:52;;;;;;;3.97;1.92;;;;;;;14.09;45.50;99873.91;10397580;28;20050;-78
2023/01/01 03:58:01;;;;;;;4.50;1.73;;;;;;;14.35;45.69;99857.69;10406388;28;20072;-79
2023/01/01 04:03:08;;;;;;;7.45;1.90;;;;;;;14.30;45.48;99863.56;10412244;28;20046;-79
2023/01/01 04:08:13;;;;;;;6.20;1.83;;;;;;;14.09;46.31;99846.91;10390134;28;20042;-78
2023/01/01 04:13:16;;;;;;;4.40;1.75;;;;;;;14.06;46.24;99847.25;10417679;28;20073;-78
2023/01/01 04:18:20;;;;;;;3.45;1.95;;;;;;;14.03;46.91;99844.84;10413818;28;20046;-78
2023/01/01 04:23:23;;;;;;;7.03;1.77;;;;;;;13.92;46.48;99849.50;10399197;28;20046;-78
2023/01/01 04:28:26;;;;;;;4.50;1.58;;;;;;;13.82;46.81;99826.31;10422512;28;20065;-78
2023/01/01 04:33:31;;;;;;;2.65;1.67;;;;;;;14.20;46.64;99854.72;10388184;28;20088;-78
2023/01/01 04:38:35;;;;;;;7.03;1.65;;;;;;;13.87;46.92;99865.34;10402078;28;20151;-78
2023/01/01 04:43:38;;;;;;;4.15;1.50;;;;;;;14.01;47.20;99873.88;10397176;28;20092;-77
2023/01/01 04:48:43;;;;;;;5.75;1.40;;;;;;;13.89;46.95;99884.94;10424998;28;20049;-78
2023/01/01 04:53:45;;;;;;;4.03;1.33;;;;;;;13.78;47.32;99876.25;10407929;28;20065;-77
2023/01/01 04:58:49;;;;;;;6.65;1.88;;;;;;;13.83;47.22;99882.88;10406134;28;20045;-77
2023/01/01 05:03:54;;;;;;;3.92;1.35;;;;;;;14.03;46.68;99875.41;10387951;28;20073;-77
2023/01/01 05:08:58;;;;;;;4.55;0.98;;;;;;;13.73;47.77;99905.56;10385927;28;20064;-77
2023/01/01 05:14:01;;;;;;;6.20;1.30;;;;;;;13.71;47.96;99905.72;10411247;28;20080;-78
2023/01/01 05:19:07;;;;;;;5.28;1.15;;;;;;;13.75;47.33;99938.66;10431594;28;20044;-78
2023/01/01 05:24:11;;;;;;;5.18;1.23;;;;;;;13.63;47.97;99943.41;10396270;28;20128;-78
2023/01/01 05:29:14;;;;;;;3.85;1.40;;;;;;;13.94;47.47;99923.09;10418839;28;20081;-77
2023/01/01 05:34:20;;;;;;;3.33;1.40;;;;;;;13.84;47.99;99937.69;10420045;28;20155;-78
2023/01/01 05:39:23;;;;;;;2.72;1.10;;;;;;;13.93;47.53;99945.72;10416055;28;20038;-78
2023/01/01 05:44:26;;;;;;;5.47;1.08;;;;;;;13.73;48.21;99919.06;10392521;28;20130;-78
2023/01/01 05:49:30;;;;;;;3.20;0.90;;;;;;;13.69;48.88;99942.81;10401563;28;20049;-78
2023/01/01 05:54:32;;;;;;;5.82;1.40;;;;;;;13.94;48.18;99946.56;10412817;28;20555;-77
2023/01/01 05:59:35;;;;;;;2.10;0.85;;;;;;;13.56;49.23;99955.84;10389496;28;20169;-78
2023/01/01 06:04:40;;;;;;;5.53;1.38;;;;;;;13.57;49.12;99952.13;10417733;28;20084;-78
2023/01/01 06:09:43;;;;;;;4.80;1.50;;;;;;;13.70;48.80;99950.75;10433712;28;20045;-78
2023/01/01 06:14:45;;;;;;;3.88;1.50;;;;;;;13.64;49.43;99937.88;10404574;28;20034;-78
2023/01/01 06:19:50;;;;;;;2.90;1.17;;;;;;;13.48;49.96;99943.13;10415635;28;20045;-77
2023/01/01 06:24:52;;;;;;;2.75;0.85;;;;;;;13.42;49.97;99970.72;10400611;28;20046;-78
2023/01/01 06:29:56;;;;;;;3.45;0.95;;;;;;;13.57;49.28;99954.84;10407698;28;20049;-77
2023/01/01 06:35:00;;;;;;;4.60;1.33;;;;;;;13.46;49.62;99993.69;10382805;28;20133;-78
2023/01/01 06:40:04;;;;;;;5.05;1.30;;;;;;;13.77;49.58;99988.78;10386217;28;20683;-78
2023/01/01 06:45:09;;;;;;;3.80;1.20;;;;;;;13.31;50.06;100009.53;10400074;28;20104;-77
2023/01/01 06:50:13;;;;;;;6.35;1.40;;;;;;;13.60;50.02;100032.78;10402943;28;20049;-77
2023/01/01 06:55:16;;;;;;;4.28;1.98;;;;;;;13.50;51.03;100024.78;10386614;28;20042;-78
2023/01/01 07:00:19;;;;;;;2.63;1.35;;;;;;;13.26;50.70;100058.50;10410066;28;20053;-78
2023/01/01 07:05:23;;;;;;;5.38;1.50;;;;;;;13.43;50.44;100008.31;10410394;28;20085;-77
2023/01/01 07:10:28;;;;;;;2.58;0.90;;;;;;;13.49;50.42;100041.94;10382279;28;20134;-77
2023/01/01 07:15:31;;;;;;;4.47;1.05;;;;;;;13.88;49.55;100049.78;10405954;28;20116;-78
2023/01/01 07:20:36;;;;;;;8.25;1.42;;;;;;;13.54;50.17;100103.56;10384078;28;20042;-78
2023/01/01 07:25:41;;;;;;;5.18;1.42;;;;;;;13.42;50.25;100068.69;10393067;28;20043;-78
2023/01/01 07:30:44;;;;;;;1.95;0.85;;;;;;;13.36;50.67;100115.13;10413926;28;20037;-78
2023/01/01 07:35:48;;;;;;;3.15;0.95;;;;;;;13.36;51.30;100103.50;10377743;28;20050;-77
2023/01/01 07:40:51;;;;;;;5.47;1.20;;;;;;;13.45;51.32;100097.22;10388951;28;20041;-76
2023/01/01 07:45:54;;;;;;;2.83;1.20;;;;;;;13.39;51.06;100108.63;10402969;28;20057;-78
2023/01/01 07:50:58;;;;;;;6.10;1.45;;;;;;;13.37;50.83;100103.34;10389982;28;20050;-78
2023/01/01 07:56:01;;;;;;;4.13;1.30;;;;;;;13.70;50.98;100111.84;10394390;28;20096;-76
2023/01/01 08:01:04;;;;;;;4.10;1.15;;;;;;;13.16;54.66;100121.59;10388859;28;20057;-77
2023/01/01 08:06:11;;;;;;;3.30;0.82;;;;;;;12.72;56.51;100127.50;10381787;28;20050;-77
2023/01/01 08:11:14;;;;;;;4.40;1.10;;;;;;;12.63;57.51;100139.16;10402441;28;20065;-77
2023/01/01 08:16:17;;;;;;;1.50;0.70;;;;;;;12.04;60.66;100170.59;10395293;28;20064;-78
2023/01/01 08:21:22;;;;;;;5.85;1.73;;;;;;;11.73;63.79;100165.25;10372285;28;20038;-77
2023/01/01 08:26:29;;;;;;;7.22;1.77;;;;;;;11.64;64.02;100165.25;10398595;28;20038;-78
2023/01/01 08:31:33;;;;;;;6.93;1.38;;;;;;;11.65;64.83;100183.09;10390039;28;20046;-77
2023/01/01 08:36:39;;;;;;;3.50;1.55;;;;;;;11.88;64.87;100197.19;10394916;28;20486;-77
2023/01/01 08:41:42;;;;;;;5.28;1.40;;;;;;;11.78;66.27;100218.69;10389992;28;20050;-76
2023/01/01 08:46:45;;;;;;;3.95;1.65;;;;;;;11.68;66.08;100234.81;10403349;28;20041;-77
2023/01/01 08:51:49;;;;;;;2.72;1.17;;;;;;;11.67;65.71;100260.00;10393649;28;20048;-77
2023/01/01 08:56:52;;;;;;;5.88;1.30;;;;;;;11.35;66.94;100291.50;10397171;28;20094;-77
2023/01/01 09:01:55;;;;;;;5.72;1.80;;;;;;;10.65;73.33;100272.28;10387136;28;20404;-76
2023/01/01 09:06:59;;;;;;;4.53;1.40;;;;;;;10.56;73.45;100276.59;10406892;28;20107;-76
2023/01/01 09:12:05;;;;;;;6.13;1.90;;;;;;;10.90;74.89;100283.66;10403666;28;20088;-78
2023/01/01 09:17:08;;;;;;;4.65;1.98;;;;;;;10.85;75.31;100297.47;10400443;28;20042;-77
2023/01/01 09:22:12;;;;;;;;;;;;;;;10.81;75.62;100315.69;10400327;28;20821;-77
2023/01/01 09:27:15;;;;;;;4.20;1.83;;;;;;;10.76;76.41;100331.34;10393990;28;20019;-77
2023/01/01 09:32:18;;;;;;;8.02;1.98;;;;;;;10.76;76.16;100319.75;10404057;28;20080;-78
2023/01/01 09:37:22;;;;;;;9.20;2.20;;;;;;;10.70;77.69;100347.13;10400653;28;20109;-78
2023/01/01 09:42:35;;;;;;;5.82;1.67;;;;;;;10.34;79.14;100365.25;10384068;28;20081;-78
2023/01/01 09:47:42;;;;;;;6.18;2.00;;;;;;;10.71;79.96;100378.38;10393149;28;20049;-78
2023/01/01 09:52:53;;;;;;;6.68;2.47;;;;;;;10.31;84.87;100412.00;10387485;28;20080;-77
2023/01/01 09:57:57;;;;;;;5.22;3.22;;;;;;;9.59;91.35;100412.19;10397113;28;20570;-79
2023/01/01 10:03:25;;;;;;;3.75;1.35;;;;;;;8.57;94.93;100391.25;10404935;28;20100;-79
2023/01/01 10:08:41;;;;;;;8.85;1.35;;;;;;;8.18;95.56;100417.19;10377665;28;20068;-81
2023/01/01 10:13:45;;;;;;;4.13;1.75;;;;;;;8.55;93.42;100390.50;10405486;28;20376;-81
2023/01/01 10:18:51;;;;;;;3.60;2.00;;;;;;;8.51;94.10;100381.00;10408296;28;20549;-81
2023/01/01 10:23:59;;;;;;;6.63;2.38;;;;;;;9.00;92.10;100391.63;10414413;28;20042;-82
2023/01/01 10:29:12;;;;;;;5.15;1.52;;;;;;;8.82;91.36;100393.00;10431330;28;20068;-81
2023/01/01 10:34:17;;;;;;;5.83;1.43;;;;;;;9.01;91.05;100384.44;10409215;28;20620;-82
2023/01/01 10:39:22;;;;;;;4.55;1.70;;;;;;;9.39;90.14;100394.97;10417769;28;20049;-82
2023/01/01 10:44:29;;;;;;;3.97;2.20;;;;;;;9.51;90.17;100395.84;10411815;28;20063;-81
2023/01/01 10:49:33;;;;;;;5.38;3.08;;;;;;;9.51;90.83;100385.97;10406673;28;20057;-82
2023/01/01 10:54:38;;;;;;;;;;;;;;;9.72;90.11;100380.78;10405975;28;20667;-81
2023/01/01 10:59:42;;;;;;;8.60;2.92;;;;;;;10.06;89.50;100386.22;10380702;28;19972;-81
2023/01/01 11:05:13;;;;;;;7.22;2.60;;;;;;;10.06;89.40;100390.75;10405344;28;20041;-81
2023/01/01 11:10:25;;;;;;;4.97;2.83;;;;;;;10.26;88.43;100373.94;10421550;28;20050;-79
2023/01/01 11:15:37;;;;;;;13.93;11.70;;;;;;;10.38;89.57;100375.63;10410915;28;20033;-82
2023/01/01 11:20:41;;;;;;;6.90;3.35;;;;;;;10.50;89.25;100362.16;10422467;28;20049;-82
2023/01/01 11:26:00;;;;;;;5.50;3.22;;;;;;;10.54;90.12;100358.28;10443496;28;20037;-80
2023/01/01 11:31:14;;;;;;;9.02;4.90;;;;;;;10.64;90.11;100350.28;10440893;28;20415;-82
2023/01/01 11:36:21;;;;;;;;;;;;;;;10.71;90.50;100356.88;10401340;28;20045;-82
2023/01/01 11:41:25;;;;;;;9.82;5.63;;;;;;;10.78;90.09;100374.22;10392723;28;19925;-80
2023/01/01 11:46:28;;;;;;;9.07;3.70;;;;;;;10.73;89.56;100388.03;10383267;28;20045;-80
2023/01/01 11:51:32;;;;;;;15.10;6.57;;;;;;;10.71;89.66;100389.13;10383520;28;20478;-82
2023/01/01 11:56:37;;;;;;;8.85;5.57;;;;;;;10.84;90.93;100403.28;10396506;28;20499;-80
2023/01/01 12:01:45;;;;;;;8.27;5.75;;;;;;;11.01;90.96;100407.25;10414774;28;20045;-78
2023/01/01 12:06:54;;;;;;;7.45;4.65;;;;;;;11.11;90.75;100391.19;10413490;28;20041;-80
2023/01/01 12:12:04;;;;;;;8.32;2.67;;;;;;;11.24;90.30;100390.09;10405442;28;20046;-80
2023/01/01 12:17:16;;;;;;;4.38;3.15;;;;;;;11.18;90.14;100393.28;10416502;28;20060;-79
2023/01/01 12:22:20;;;;;;;8.18;3.67;;;;;;;11.24;90.58;100400.88;10434947;28;20045;-81
2023/01/01 12:27:43;;;;;;;12.68;6.80;;;;;;;11.29;89.57;100392.38;10411694;28;20041;-81
2023/01/01 12:33:05;;;;;;;11.15;4.22;;;;;;;11.36;90.47;100400.81;10414969;28;20518;-76
2023/01/01 12:38:22;;;;;;;12.98;5.88;;;;;;;11.56;90.21;100404.50;10409068;28;20050;-78
2023/01/01 12:43:43;;;;;;;11.68;5.30;;;;;;;11.89;91.38;100409.69;10454089;28;20044;-81
2023/01/01 12:49:00;;;;;;;11.52;4.18;;;;;;;12.32;91.85;100394.34;10435390;28;20045;-81
2023/01/01 12:54:41;;;;;;;9.20;4.20;;;;;;;13.00;89.29;100386.44;10422834;28;20046;-79
2023/01/01 12:59:50;;;;;;;6.80;3.70;;;;;;;13.19;87.83;100377.50;10399446;28;20050;-79
2023/01/01 13:04:57;;;;;;;12.80;7.20;;;;;;;12.93;87.04;100382.59;10422980;28;20213;-79
2023/01/01 13:10:19;;;;;;;9.48;5.35;;;;;;;12.53;85.96;100395.16;10405854;28;20065;-79
2023/01/01 13:15:47;;;;;;;7.93;2.85;;;;;;;12.14;80.97;100386.00;10397253;28;20503;-79
2023/01/01 13:21:02;;;;;;;7.55;2.60;;;;;;;11.99;78.33;100387.38;10407332;28;20088;-80
2023/01/01 13:26:37;;;;;;;6.63;2.58;;;;;;;11.88;77.30;100394.53;10402061;28;20049;-78
2023/01/01 13:32:01;;;;;;;7.05;2.13;;;;;;;11.69;74.88;100380.94;10424538;28;20080;-80
2023/01/01 13:37:53;;;;;;;15.15;3.15;;;;;;;11.54;73.94;100379.56;10404636;28;20096;-80
2023/01/01 13:43:15;;;;;;;6.63;2.50;;;;;;;11.90;74.56;100384.47;10406553;28;20057;-79
2023/01/01 13:48:33;;;;;;;12.25;2.78;;;;;;;11.94;72.77;100396.69;10376941;28;20069;-80
2023/01/01 13:53:51;;;;;;;6.45;2.47;;;;;;;12.07;72.67;100409.09;10369887;28;20053;-79
2023/01/01 13:59:20;;;;;;;6.00;2.20;;;;;;;12.09;72.05;100405.25;10373252;28;20056;-78
2023/01/01 14:04:38;;;;;;;10.35;2.72;;;;;;;12.08;70.80;100398.16;10349466;28;20123;-80
2023/01/01 14:09:41;;;;;;;6.18;2.05;;;;;;;11.85;70.09;100418.16;10376598;28;20593;-80
2023/01/01 14:14:44;;;;;;;7.55;2.85;;;;;;;12.00;69.97;100424.91;10371530;28;20053;-79
2023/01/01 14:19:50;;;;;;;7.28;1.70;;;;;;;12.33;70.38;100421.13;10357745;28;20465;-78
2023/01/01 14:24:53;;;;;;;8.00;1.95;;;;;;;12.15;67.98;100423.59;10369776;28;20522;-78
2023/01/01 14:29:56;;;;;;;7.55;1.80;;;;;;;12.05;67.86;100432.59;10373010;28;20186;-78
2023/01/01 14:35:02;;;;;;;10.73;2.25;;;;;;;12.09;67.37;100420.56;10364603;28;21255;-76
2023/01/01 14:40:07;;;;;;;7.38;1.90;;;;;;;12.25;67.34;100420.06;10336515;28;20049;-77
2023/01/01 14:45:15;;;;;;;6.90;1.75;;;;;;;12.14;66.50;100423.69;10358141;28;20076;-77
2023/01/01 14:50:24;;;;;;;6.45;2.00;;;;;;;12.38;66.37;100410.81;10346694;28;20077;-77
2023/01/01 14:55:31;;;;;;;6.88;2.08;;;;;;;12.09;65.80;100425.94;10340413;28;20057;-77
2023/01/01 15:00:34;;;;;;;7.32;1.95;;;;;;;12.10;65.65;100438.44;10363778;28;20053;-78
2023/01/01 15:05:40;;;;;;;8.52;1.98;;;;;;;12.32;65.23;100438.28;10358982;28;20376;-77
2023/01/01 15:10:43;;;;;;;4.60;1.65;;;;;;;12.33;65.29;100456.16;10359426;28;21326;-78
2023/01/01 15:15:48;;;;;;;7.80;2.35;;;;;;;12.36;64.90;100452.34;10356725;28;20041;-78
2023/01/01 15:20:55;;;;;;;8.43;1.95;;;;;;;12.42;65.38;100454.50;10366464;28;20053;-76
2023/01/01 15:25:58;;;;;;;8.70;1.95;;;;;;;12.43;64.41;100463.44;10346652;28;20507;-77
2023/01/01 15:31:01;;;;;;;4.35;1.52;;;;;;;12.40;63.92;100456.47;10355698;28;20205;-79
2023/01/01 15:36:06;;;;;;;5.63;1.83;;;;;;;12.39;64.31;100470.91;10361452;28;20048;-78
2023/01/01 15:41:23;;;;;;;7.70;2.30;;;;;;;12.35;63.58;100456.03;10364119;28;20045;-76
2023/01/01 15:46:29;;;;;;;6.57;1.90;;;;;;;12.51;63.13;100444.78;10353719;28;20054;-77
2023/01/01 15:51:35;;;;;;;8.27;3.63;;;;;;;12.50;64.85;100462.75;10367310;28;20056;-76
2023/01/01 15:56:40;;;;;;;7.28;2.30;;;;;;;12.41;64.23;100457.34;10351575;28;20046;-77
2023/01/01 16:01:44;;;;;;;7.65;1.73;;;;;;;12.18;64.28;100454.78;10347075;28;20046;-77
2023/01/01 16:06:50;;;;;;;9.05;2.45;;;;;;;12.34;64.38;100460.56;10349955;28;20037;-77
2023/01/01 16:11:55;;;;;;;6.78;2.10;;;;;;;12.37;66.17;100451.38;10364240;28;20048;-76
2023/01/01 16:17:00;;;;;;;5.60;2.67;;;;;;;12.32;65.65;100459.84;10349681;28;20057;-78
2023/01/01 16:22:05;;;;;;;5.82;2.35;;;;;;;12.27;65.47;100447.75;10366644;28;20037;-76
2023/01/01 16:27:08;;;;;;;10.93;2.42;;;;;;;12.24;65.36;100451.53;10369224;28;20144;-77
2023/01/01 16:32:16;;;;;;;6.40;2.33;;;;;;;12.26;65.12;100449.59;10355215;28;20144;-78
2023/01/01 16:37:21;;;;;;;9.25;2.30;;;;;;;12.28;64.97;100465.59;10363322;28;20049;-77
2023/01/01 16:42:24;;;;;;;6.97;1.90;;;;;;;12.22;64.43;100468.81;10367589;28;20045;-78
2023/01/01 16:47:27;;;;;;;6.88;3.05;;;;;;;12.33;64.47;100466.09;10369809;28;20044;-78
2023/01/01 16:52:31;;;;;;;5.80;2.33;;;;;;;12.19;64.38;100464.56;10359513;28;20045;-76
2023/01/01 16:57:36;;;;;;;5.72;2.47;;;;;;;12.20;64.57;100470.78;10363572;28;20053;-78
2023/01/01 17:02:39;;;;;;;9.32;2.58;;;;;;;12.20;64.78;100470.78;10333563;28;20180;-77
2023/01/01 17:07:43;;;;;;;5.82;2.58;;;;;;;12.25;64.64;100469.41;10360013;28;20049;-78
2023/01/01 17:12:46;;;;;;;6.35;2.42;;;;;;;12.17;64.36;100471.91;10358757;28;20050;-78
2023/01/01 17:17:49;;;;;;;7.75;2.88;;;;;;;12.27;64.57;100467.44;10367887;28;21169;-78
2023/01/01 17:22:53;;;;;;;6.70;3.05;;;;;;;12.26;64.38;100471.13;10339046;28;20041;-78
2023/01/01 17:27:56;;;;;;;6.88;2.90;;;;;;;12.29;65.12;100475.44;10342823;28;20067;-77
2023/01/01 17:32:59;;;;;;;11.00;2.80;;;;;;;12.26;65.33;100470.25;10338188;28;20049;-78
2023/01/01 17:38:03;;;;;;;10.43;4.15;;;;;;;12.10;66.34;100466.22;10350776;28;20479;-78
2023/01/01 17:43:06;;;;;;;7.00;2.33;;;;;;;11.86;67.49;100465.63;10360961;28;20053;-78
2023/01/01 17:48:09;;;;;;;9.38;2.90;;;;;;;11.75;68.26;100463.84;10343059;28;20060;-76
2023/01/01 17:53:13;;;;;;;6.43;2.55;;;;;;;11.55;68.62;100454.78;10361114;28;20495;-76
2023/01/01 17:58:16;;;;;;;6.30;1.98;;;;;;;11.57;68.50;100462.69;10356898;28;20054;-76
2023/01/01 18:03:20;;;;;;;8.43;2.65;;;;;;;11.44;68.96;100452.13;10357877;28;20068;-78
2023/01/01 18:08:24;;;;;;;7.93;3.28;;;;;;;11.60;68.30;100451.66;10363020;28;20061;-77
2023/01/01 18:13:27;;;;;;;6.68;2.58;;;;;;;11.54;67.92;100447.66;10370097;28;20053;-75
2023/01/01 18:18:30;;;;;;;4.78;2.50;;;;;;;11.66;68.24;100433.19;10364970;28;20052;-77
2023/01/01 18:23:38;;;;;;;6.13;2.63;;;;;;;11.57;68.31;100425.88;10365366;28;20499;-76
2023/01/01 18:28:41;;;;;;;6.28;2.70;;;;;;;11.51;68.07;100445.22;10354177;28;21284;-76
2023/01/01 18:33:45;;;;;;;5.45;2.55;;;;;;;11.59;67.85;100431.13;10353746;28;20167;-77
2023/01/01 18:38:57;;;;;;;5.22;2.75;;;;;;;11.54;67.86;100439.59;10357463;28;20046;-76
2023/01/01 18:44:00;;;;;;;6.25;2.35;;;;;;;11.54;67.69;100425.28;10355776;28;20123;-77
2023/01/01 18:49:10;;;;;;;6.07;2.40;;;;;;;11.56;67.75;100423.34;10359177;28;20141;-76
2023/01/01 18:54:15;;;;;;;5.13;1.77;;;;;;;11.43;67.86;100427.03;10359098;28;21218;-76
2023/01/01 18:59:21;;;;;;;4.38;1.80;;;;;;;11.54;67.72;100417.22;10362174;28;20615;-79
2023/01/01 19:04:24;;;;;;;3.88;2.17;;;;;;;11.41;68.33;100412.88;10359387;28;20058;-76
2023/01/01 19:09:29;;;;;;;7.35;2.25;;;;;;;11.49;69.00;100415.78;10373568;28;20132;-76
2023/01/01 19:14:32;;;;;;;3.95;2.10;;;;;;;11.45;70.53;100411.63;10370066;28;20046;-78
2023/01/01 19:19:40;;;;;;;5.38;2.90;;;;;;;11.16;72.56;100415.91;10366323;28;20037;-75
2023/01/01 19:24:44;;;;;;;6.93;2.72;;;;;;;11.02;74.14;100403.56;10367277;28;20056;-75
2023/01/01 19:29:49;;;;;;;5.32;3.00;;;;;;;11.01;75.24;100396.50;10342659;28;20057;-77
2023/01/01 19:34:52;;;;;;;5.80;2.42;;;;;;;10.88;76.38;100399.34;10352808;28;20104;-77
2023/01/01 19:39:56;;;;;;;5.25;2.85;;;;;;;10.83;77.05;100402.44;10367833;28;20077;-76
2023/01/01 19:44:59;;;;;;;7.50;3.33;;;;;;;10.94;77.83;100404.22;10337028;28;20057;-75
2023/01/01 19:50:02;;;;;;;7.18;2.70;;;;;;;10.94;77.64;100409.59;10358300;28;20049;-75
2023/01/01 19:55:08;;;;;;;7.60;3.42;;;;;;;10.72;79.92;100397.03;10366714;28;20530;-76
2023/01/01 20:00:12;;;;;;;12.50;3.40;;;;;;;10.38;82.65;100399.78;10365168;28;20426;-75
2023/01/01 20:05:14;;;;;;;7.30;3.90;;;;;;;10.33;83.70;100395.75;10346901;28;20183;-75
2023/01/01 20:10:19;;;;;;;11.93;3.97;;;;;;;10.29;84.97;100373.69;10355407;28;20056;-78
2023/01/01 20:15:25;;;;;;;9.45;4.03;;;;;;;10.28;87.14;100355.84;10335694;28;20056;-78
2023/01/01 20:20:27;;;;;;;8.20;3.83;;;;;;;10.30;86.37;100358.41;10332681;28;20123;-76
2023/01/01 20:25:32;;;;;;;6.85;3.13;;;;;;;10.17;86.62;100346.00;10362645;28;21578;-76
2023/01/01 20:30:36;;;;;;;9.68;3.40;;;;;;;10.19;87.36;100348.53;10335211;28;20519;-77
2023/01/01 20:41:22;;;;;;;6.35;3.47;;;;;;;10.18;87.29;100328.03;10324027;28;20549;-77
2023/01/01 20:46:24;;;;;;;10.27;3.78;;;;;;;10.23;87.58;100324.97;10362299;28;20050;-77
2023/01/01 20:51:27;;;;;;;10.10;3.97;;;;;;;10.23;87.33;100308.88;10360967;28;20050;-76
2023/01/01 20:56:31;;;;;;;8.65;3.47;;;;;;;10.12;87.22;100302.56;10374553;28;20049;-75
2023/01/01 21:01:34;;;;;;;8.43;3.55;;;;;;;10.17;87.26;100295.00;10356449;28;21161;-76
2023/01/01 21:06:37;;;;;;;8.43;3.80;;;;;;;10.15;87.22;100285.34;10368652;28;20046;-75
2023/01/01 21:11:41;;;;;;;8.63;4.00;;;;;;;10.17;87.31;100278.88;10369226;28;20392;-75
2023/01/01 21:16:44;;;;;;;7.85;4.65;;;;;;;10.15;87.02;100280.84;10343165;28;20532;-75
2023/01/01 21:21:49;;;;;;;10.75;4.13;;;;;;;10.20;87.29;100279.59;10344310;28;20060;-76
2023/01/01 21:26:55;;;;;;;12.15;3.80;;;;;;;10.21;87.32;100271.44;10347316;28;20491;-76
2023/01/01 21:32:12;;;;;;;12.40;4.68;;;;;;;10.25;87.28;100253.22;10361816;28;20410;-76
2023/01/01 21:37:45;;;;;;;7.25;4.00;;;;;;;10.25;87.03;100247.84;10352898;28;20124;-75
2023/01/01 21:42:44;;;;;;;9.48;4.30;;;;;;;10.31;87.29;100231.25;10360535;28;21170;-76
2023/01/01 21:47:47;;;;;;;9.90;4.50;;;;;;;10.29;86.70;100219.78;10360225;28;21574;-76
2023/01/01 21:52:50;;;;;;;12.25;4.28;;;;;;;10.28;87.22;100210.03;10364603;28;20053;-77
2023/01/01 21:59:24;;;;;;;13.48;4.55;;;;;;;10.29;86.84;100207.22;10358719;28;20042;-74
2023/01/01 22:03:24;;;;;;;11.45;4.80;;;;;;;10.33;86.99;100197.06;10384057;28;20056;-77
2023/01/01 22:08:27;;;;;;;13.38;4.88;;;;;;;10.32;86.78;100190.84;10396908;28;20064;-77
2023/01/01 22:13:31;;;;;;;13.63;5.20;;;;;;;10.29;86.70;100195.63;10403879;28;20488;-76
2023/01/01 22:18:38;;;;;;;10.45;4.82;;;;;;;10.31;86.45;100181.09;10412131;28;20126;-77
2023/01/01 22:23:42;;;;;;;9.63;5.03;;;;;;;10.33;86.34;100183.66;10408909;28;20120;-76
2023/01/01 22:28:49;;;;;;;11.40;5.10;;;;;;;10.28;86.18;100169.75;10404282;28;20096;-77
2023/01/01 22:33:54;;;;;;;13.23;6.85;;;;;;;10.22;85.77;100168.44;10399281;28;20041;-76
2023/01/01 22:39:00;;;;;;;11.65;5.95;;;;;;;10.29;85.68;100155.38;10387626;28;20395;-77
2023/01/01 22:44:05;;;;;;;11.82;5.97;;;;;;;10.26;85.94;100142.19;10404295;28;20045;-76
2023/01/01 22:49:18;;;;;;;18.42;6.85;;;;;;;10.21;85.96;100142.56;10390736;28;20053;-76
2023/01/01 22:54:21;;;;;;;12.00;7.00;;;;;;;10.23;85.91;100146.00;10372854;28;20046;-76
2023/01/01 22:59:26;;;;;;;11.60;6.13;;;;;;;10.11;85.74;100134.41;10372598;28;20044;-77
2023/01/01 23:04:29;;;;;;;14.13;7.38;;;;;;;10.08;86.99;100136.53;10376635;28;20050;-77
2023/01/01 23:09:32;;;;;;;13.02;6.38;;;;;;;10.04;87.11;100132.38;10373257;28;20069;-76
2023/01/01 23:19:58;;;;;;;13.85;7.25;;;;;;;10.05;88.64;100128.72;10374047;28;20049;-77
2023/01/01 23:25:01;;;;;;;17.17;4.90;;;;;;;10.15;88.81;100111.72;10403819;28;20042;-78
2023/01/01 23:30:07;;;;;;;9.80;4.57;;;;;;;10.20;89.33;100102.44;10354259;28;1120710;-77
2023/01/01 23:35:11;;;;;;;10.15;4.88;;;;;;;10.35;88.68;100110.03;10395573;28;20041;-77
2023/01/01 23:40:14;;;;;;;13.30;4.10;;;;;;;10.48;88.52;100106.34;10397392;28;20033;-77
2023/01/01 23:45:18;;;;;;;13.63;4.18;;;;;;;10.53;88.28;100106.78;10408173;28;20526;-78